ASN logo
ASN Wikibase Occurrence # 196631
Last updated: 21 October 2017
This information is added by users of ASN. Neither ASN nor the Flight Safety Foundation are responsible for the completeness or correctness of this information. If you feel this information is incomplete or incorrect, you can submit corrected information.

Date:12-JUL-2017
Time:13:36
Type:Silhouette image of generic HDJT model; specific model in this crash may look slightly different
Honda HA-420 HondaJet
Owner/operator:Private
Registration: N20UQ
C/n / msn: 42000048
Fatalities:Fatalities: 0 / Occupants: 6
Other fatalities:0
Airplane damage: Unknown
Category:Serious incident
Location:Chicago-Midway Airport, IL (MDW/KMDW) -   United States of America
Phase: Landing
Nature:Unknown
Departure airport:Philadelphia International Airport, PA (PHL/KPHL)
Destination airport:Chicago-Midway Airport, IL (MDW/KMDW)
Narrative:
A Honda HA-420 HondaJet corporate jet suffered a runway excursion on landing at Chicago-Midway Airport, Illinois, USA.
The aircraft skidded on the grass and came to rest close to the perimeter fence.

Preliminary information from video footage and ADS-B data suggest that the aircraft landed on runway 31C and steered off the left side side of the runway just prior to reaching the Engineered Material Arrestor System (EMAS) pad at the end of the runway.

Weather reported about the time of the incident (13:36 LT / 18:36Z):

KMDW 121853Z 18009G17KT 10SM -RA FEW060 BKN110 BKN130 OVC200 23/21 A2991 RMK AO2 LTG DSNT NE SLP120 P0007 T02280211 $
KMDW 121753Z 21011KT 10SM -RA FEW040 SCT090 BKN120 OVC200 23/21 A2996 RMK AO2 LTG DSNT ALQDS RAB37 SLP135 P0001 60060 T02280206 10256 20206 51006 $
KMDW 121653Z 20011KT 10SM FEW045 SCT060 BKN110 OVC150 23/21 A2995 RMK AO2 LTG DSNT W AND NW RAE41 TSE09 SLP133 P0001 T02280211

Sources:

https://flightaware.com/live/flight/N20UQ
FAA


Revision history:

Date/timeContributorUpdates
12-Jul-2017 19:54 harro Added
12-Jul-2017 19:57 harro Updated [Departure airport, Embed code]
12-Jul-2017 20:00 harro Updated [Narrative]
12-Jul-2017 20:02 harro Updated [Nature, Narrative]
12-Jul-2017 20:50 Iceman 29 Updated [Embed code]
13-Jul-2017 06:40 harro Updated [Embed code]
13-Jul-2017 17:10 harro Updated [Total fatalities, Source]

Corrections or additions? ... Edit this accident description